Terminal Aerodrome Forecast
Issued by NWS

Current Version | Previous Version | Text Only | Print | Product List | Glossary Off
Versions: 1 2 3 4 5 6 7 8 9 10 11 12 13 14 15 16 17 18 19 20 21 22 23

000
FTUS41 KRNK 270930 CCA
TAFLWB
TAF COR
KLWB 270930Z 2709/2806 VRB03KT P6SM SCT001
     FM271100 00000KT 1/4SM FG OVC001
     FM271400 13004KT P6SM SCT045
     FM271500 11006KT P6SM SCT045 BKN120
     FM280000 09004KT P6SM BKN250
     FM280300 00000KT 4SM BR SCT250=

USA.gov is the U.S. government's official web portal to all federal, state and local government web resources and services.